createdAt,value
2019-05-25T00:00:43.320Z,780.99
2019-05-25T00:01:43.294Z,781.03
2019-05-25T00:02:43.313Z,781.02
2019-05-25T00:03:43.332Z,781.01
2019-05-25T00:04:43.264Z,780.99
2019-05-25T00:05:43.241Z,781.01
2019-05-25T00:06:43.244Z,781.00
2019-05-25T00:07:43.223Z,781.01
2019-05-25T00:08:43.255Z,781.04
2019-05-25T00:09:43.213Z,781.03
2019-05-25T00:10:43.200Z,781.05
2019-05-25T00:11:43.213Z,781.07
2019-05-25T00:12:43.197Z,781.10
2019-05-25T00:13:43.190Z,781.08
2019-05-25T00:14:43.152Z,781.15
2019-05-25T00:15:43.152Z,781.12
2019-05-25T00:16:43.129Z,781.12
2019-05-25T00:17:43.660Z,781.16
2019-05-25T00:18:43.128Z,781.16
2019-05-25T00:19:43.086Z,781.20
2019-05-25T00:20:43.090Z,781.26
2019-05-25T00:21:43.078Z,781.26
2019-05-25T00:22:43.057Z,781.29
2019-05-25T00:23:43.063Z,781.32
2019-05-25T00:24:43.037Z,781.33
2019-05-25T00:25:43.025Z,781.37
2019-05-25T00:26:43.028Z,781.42
2019-05-25T00:27:43.013Z,781.42
2019-05-25T00:28:43.065Z,781.41
2019-05-25T00:29:42.984Z,781.46
2019-05-25T00:30:42.964Z,781.48
2019-05-25T00:31:42.965Z,781.49
2019-05-25T00:32:42.950Z,781.57
2019-05-25T00:33:42.947Z,781.59
2019-05-25T00:34:42.929Z,781.61
2019-05-25T00:35:42.921Z,781.60
2019-05-25T00:36:42.900Z,781.65
2019-05-25T00:37:42.894Z,781.64
2019-05-25T00:38:42.905Z,781.63
2019-05-25T00:39:42.877Z,781.65
2019-05-25T00:40:42.876Z,781.70
2019-05-25T00:41:42.858Z,781.77
2019-05-25T00:42:42.833Z,781.79
2019-05-25T00:43:42.857Z,781.82
2019-05-25T00:44:42.820Z,781.88
2019-05-25T00:45:42.804Z,781.86
2019-05-25T00:46:42.803Z,781.89
2019-05-25T00:47:42.792Z,781.90
2019-05-25T00:48:42.793Z,781.90
2019-05-25T00:49:42.772Z,781.91
2019-05-25T00:50:42.753Z,781.92
2019-05-25T00:51:42.737Z,781.91
2019-05-25T00:52:42.742Z,781.90
2019-05-25T00:53:42.764Z,781.90
2019-05-25T00:54:42.706Z,781.90
2019-05-25T00:55:42.700Z,781.95
2019-05-25T00:56:42.695Z,781.95
2019-05-25T00:57:42.708Z,781.96
2019-05-25T00:58:42.689Z,782.00
2019-05-25T00:59:42.656Z,782.03
2019-05-25T01:00:42.644Z,782.06
2019-05-25T01:01:42.636Z,782.11
2019-05-25T01:03:51.890Z,782.35
2019-05-25T01:04:52.820Z,782.23
2019-05-25T01:05:52.809Z,782.23
2019-05-25T01:06:52.806Z,782.22
2019-05-25T01:07:52.784Z,782.24
2019-05-25T01:08:52.784Z,782.27
2019-05-25T01:09:52.783Z,782.27
2019-05-25T01:10:52.759Z,782.25
2019-05-25T01:11:52.760Z,782.34
2019-05-25T01:12:52.738Z,782.39
2019-05-25T01:13:52.800Z,782.41
2019-05-25T01:14:52.721Z,782.42
2019-05-25T01:15:52.715Z,782.47
2019-05-25T01:16:52.710Z,782.45
2019-05-25T01:17:52.679Z,782.42
2019-05-25T01:18:52.708Z,782.47
2019-05-25T01:19:52.671Z,782.48
2019-05-25T01:20:52.652Z,782.50
2019-05-25T01:21:52.669Z,782.49
2019-05-25T01:22:52.634Z,782.49
2019-05-25T01:23:52.655Z,782.50
2019-05-25T01:24:52.687Z,782.49
2019-05-25T01:25:52.581Z,782.45
2019-05-25T01:26:52.582Z,782.48
2019-05-25T01:27:52.591Z,782.54
2019-05-25T01:28:52.607Z,782.61
2019-05-25T01:29:52.553Z,782.63
2019-05-25T01:30:52.564Z,782.67
2019-05-25T01:31:52.549Z,782.72
2019-05-25T01:32:52.509Z,782.75
2019-05-25T01:33:52.527Z,782.81
2019-05-25T01:34:52.519Z,782.82
2019-05-25T01:35:52.508Z,782.84
2019-05-25T01:36:52.484Z,782.85
2019-05-25T01:37:52.486Z,782.86
2019-05-25T01:38:52.474Z,782.90
2019-05-25T01:39:52.462Z,782.94
2019-05-25T01:40:52.460Z,782.92
2019-05-25T01:41:52.416Z,782.98
2019-05-25T01:42:52.395Z,783.02
2019-05-25T01:43:52.409Z,783.06
2019-05-25T01:44:52.405Z,783.04
2019-05-25T01:45:52.408Z,783.03
2019-05-25T01:46:52.388Z,783.02
2019-05-25T01:47:52.353Z,783.05
2019-05-25T01:48:52.391Z,783.04
2019-05-25T01:49:52.345Z,783.08
2019-05-25T01:50:52.343Z,783.06
2019-05-25T01:51:52.303Z,783.08
2019-05-25T01:52:52.285Z,783.08
2019-05-25T01:53:52.283Z,783.15
2019-05-25T01:54:59.754Z,783.19
2019-05-25T01:55:52.302Z,783.24
2019-05-25T01:56:52.243Z,783.23
2019-05-25T01:57:52.237Z,783.21
2019-05-25T01:58:52.239Z,783.21
2019-05-25T01:59:52.222Z,783.18
2019-05-25T02:00:52.207Z,783.19
2019-05-25T02:01:52.215Z,783.23
2019-05-25T02:02:52.208Z,783.21
2019-05-25T02:03:52.201Z,783.21
2019-05-25T02:04:52.181Z,783.22
2019-05-25T02:05:52.158Z,783.21
2019-05-25T02:06:52.149Z,783.21
2019-05-25T02:07:52.155Z,783.19
2019-05-25T02:08:52.105Z,783.22
2019-05-25T02:09:52.155Z,783.25
2019-05-25T02:10:52.119Z,783.30
2019-05-25T02:11:52.101Z,783.34
2019-05-25T02:12:52.177Z,783.40
2019-05-25T02:13:52.054Z,783.42
2019-05-25T02:14:52.092Z,783.43
2019-05-25T02:15:52.035Z,783.44
2019-05-25T02:16:52.041Z,783.45
2019-05-25T02:17:52.028Z,783.47
2019-05-25T02:18:52.012Z,783.43
2019-05-25T02:19:52.026Z,783.47
2019-05-25T02:20:51.987Z,783.49
2019-05-25T02:21:51.972Z,783.49
2019-05-25T02:22:51.953Z,783.50
2019-05-25T02:23:51.963Z,783.53
2019-05-25T02:24:51.940Z,783.59
2019-05-25T02:25:51.960Z,783.62
2019-05-25T02:26:51.952Z,783.63
2019-05-25T02:27:51.950Z,783.67
2019-05-25T02:28:51.906Z,783.66
2019-05-25T02:29:51.912Z,783.70
2019-05-25T02:30:51.867Z,783.74
2019-05-25T02:31:51.868Z,783.80
2019-05-25T02:32:51.853Z,783.77
2019-05-25T02:33:51.829Z,783.79
2019-05-25T02:34:51.898Z,783.77
2019-05-25T02:35:51.812Z,783.79
2019-05-25T02:36:51.794Z,783.82
2019-05-25T02:37:51.794Z,783.84
2019-05-25T02:38:51.821Z,783.87
2019-05-25T02:39:51.830Z,783.91
2019-05-25T02:40:51.755Z,783.88
2019-05-25T02:41:51.745Z,783.87
2019-05-25T02:42:51.762Z,783.89
2019-05-25T02:43:51.738Z,783.91
2019-05-25T02:44:51.753Z,783.92
2019-05-25T02:45:51.721Z,783.96
2019-05-25T02:46:51.731Z,783.98
2019-05-25T02:47:51.690Z,783.99
2019-05-25T02:48:51.673Z,784.01
2019-05-25T02:49:51.709Z,784.03
2019-05-25T02:50:53.120Z,784.03
2019-05-25T02:51:51.646Z,784.05
2019-05-25T02:52:51.661Z,784.05
2019-05-25T02:53:51.648Z,784.06
2019-05-25T02:54:51.637Z,784.06
2019-05-25T02:55:51.597Z,784.08
2019-05-25T02:56:51.595Z,784.12
2019-05-25T02:57:51.578Z,784.10
2019-05-25T02:58:51.599Z,784.10
2019-05-25T02:59:51.579Z,784.14
2019-05-25T03:00:51.565Z,784.12
2019-05-25T03:01:51.531Z,784.08
2019-05-25T03:02:51.554Z,784.07
2019-05-25T03:05:00.747Z,784.22
2019-05-25T03:06:01.791Z,784.13
2019-05-25T03:07:01.709Z,784.14
2019-05-25T03:08:01.705Z,784.16
2019-05-25T03:09:01.718Z,784.15
2019-05-25T03:10:01.726Z,784.16
2019-05-25T03:11:01.671Z,784.17
2019-05-25T03:12:01.663Z,784.13
2019-05-25T03:13:01.652Z,784.13
2019-05-25T03:14:01.631Z,784.13
2019-05-25T03:15:01.678Z,784.15
2019-05-25T03:16:01.610Z,784.15
2019-05-25T03:17:01.590Z,784.17
2019-05-25T03:18:01.592Z,784.21
2019-05-25T03:19:01.579Z,784.22
2019-05-25T03:20:01.588Z,784.21
2019-05-25T03:21:01.551Z,784.21
2019-05-25T03:22:01.552Z,784.22
2019-05-25T03:23:01.551Z,784.26
2019-05-25T03:24:01.530Z,784.26
2019-05-25T03:25:01.514Z,784.33
2019-05-25T03:26:01.523Z,784.27
2019-05-25T03:27:01.508Z,784.27
2019-05-25T03:28:01.481Z,784.26
2019-05-25T03:29:01.460Z,784.25
2019-05-25T03:30:01.711Z,784.24
2019-05-25T03:31:01.463Z,784.24
2019-05-25T03:32:01.439Z,784.26
2019-05-25T03:33:01.587Z,784.20
2019-05-25T03:34:01.419Z,784.16
2019-05-25T03:35:01.501Z,784.16
2019-05-25T03:36:01.415Z,784.16
2019-05-25T03:37:01.389Z,784.15
2019-05-25T03:38:01.380Z,784.12
2019-05-25T03:39:01.369Z,784.10
2019-05-25T03:40:01.351Z,784.09
2019-05-25T03:41:01.348Z,784.08
2019-05-25T03:42:01.326Z,784.05
2019-05-25T03:43:01.344Z,784.03
2019-05-25T03:44:01.297Z,784.04
2019-05-25T03:45:01.283Z,784.00
2019-05-25T03:46:01.294Z,784.00
2019-05-25T03:47:01.287Z,783.97
2019-05-25T03:48:01.267Z,783.97
2019-05-25T03:49:01.314Z,783.90
2019-05-25T03:50:01.241Z,783.85
2019-05-25T03:51:01.264Z,783.83
2019-05-25T03:52:01.227Z,783.84
2019-05-25T03:53:01.204Z,783.80
2019-05-25T03:54:01.206Z,783.79
2019-05-25T03:55:01.176Z,783.78
2019-05-25T03:56:05.998Z,783.77
2019-05-25T03:57:01.166Z,783.75
2019-05-25T03:58:01.140Z,783.71
2019-05-25T03:59:01.140Z,783.71
2019-05-25T04:00:01.131Z,783.64
2019-05-25T04:01:01.153Z,783.66
2019-05-25T04:02:01.113Z,783.63
2019-05-25T04:03:01.103Z,783.57
2019-05-25T04:04:01.089Z,783.52
2019-05-25T04:05:01.074Z,783.54
2019-05-25T04:06:01.072Z,783.45
2019-05-25T04:07:01.056Z,783.39
2019-05-25T04:08:01.033Z,783.37
2019-05-25T04:09:01.057Z,783.36
2019-05-25T04:10:01.057Z,783.35
2019-05-25T04:11:01.018Z,783.35
2019-05-25T04:12:01.006Z,783.33
2019-05-25T04:13:00.977Z,783.33
2019-05-25T04:14:00.991Z,783.34
2019-05-25T04:15:00.992Z,783.33
2019-05-25T04:16:00.984Z,783.28
2019-05-25T04:17:00.947Z,783.29
2019-05-25T04:18:00.929Z,783.30
2019-05-25T04:19:00.912Z,783.31
2019-05-25T04:20:00.915Z,783.26
2019-05-25T04:21:00.927Z,783.24
2019-05-25T04:22:00.900Z,783.21
2019-05-25T04:23:00.873Z,783.21
2019-05-25T04:24:00.857Z,783.16
2019-05-25T04:25:00.858Z,783.17
2019-05-25T04:26:00.867Z,783.14
2019-05-25T04:27:00.837Z,783.15
2019-05-25T04:28:00.821Z,783.14
2019-05-25T04:29:00.810Z,783.10
2019-05-25T04:30:00.801Z,783.14
2019-05-25T04:31:00.815Z,783.14
2019-05-25T04:32:00.795Z,783.14
2019-05-25T04:33:00.790Z,783.12
2019-05-25T04:34:00.761Z,783.12
2019-05-25T04:35:00.923Z,783.09
2019-05-25T04:36:00.742Z,783.10
2019-05-25T04:37:00.725Z,783.10
2019-05-25T04:38:00.717Z,783.14
2019-05-25T04:39:00.715Z,783.19
2019-05-25T04:40:00.748Z,783.13
2019-05-25T04:41:00.750Z,783.13
2019-05-25T04:42:00.667Z,783.13
2019-05-25T04:43:00.670Z,783.09
2019-05-25T04:44:00.649Z,783.08
2019-05-25T04:45:00.638Z,783.08
2019-05-25T04:46:00.634Z,783.05
2019-05-25T04:47:00.619Z,783.02
2019-05-25T04:48:00.608Z,782.99
2019-05-25T04:49:00.592Z,782.97
2019-05-25T04:50:00.583Z,782.92
2019-05-25T04:51:00.566Z,782.94
2019-05-25T04:52:00.578Z,782.96
2019-05-25T04:53:00.552Z,782.93
2019-05-25T04:54:00.538Z,783.00
2019-05-25T04:55:00.524Z,783.03
2019-05-25T04:56:00.503Z,783.06
2019-05-25T04:57:00.534Z,783.06
2019-05-25T04:58:00.514Z,783.05
2019-05-25T04:59:00.478Z,783.05
2019-05-25T05:00:00.476Z,783.07
2019-05-25T05:01:00.491Z,783.16
2019-05-25T05:02:00.501Z,783.18
2019-05-25T05:03:00.451Z,783.16
2019-05-25T05:04:00.417Z,783.14
2019-05-25T05:06:09.599Z,783.20
2019-05-25T05:07:10.621Z,783.02
2019-05-25T05:08:10.588Z,782.86
2019-05-25T05:09:10.572Z,782.72
2019-05-25T05:10:10.557Z,782.66
2019-05-25T05:11:10.556Z,782.59
2019-05-25T05:12:10.558Z,782.56
2019-05-25T05:13:10.526Z,782.49
2019-05-25T05:14:10.585Z,782.54
2019-05-25T05:15:10.515Z,782.59
2019-05-25T05:16:10.486Z,782.68
2019-05-25T05:17:10.511Z,782.67
2019-05-25T05:18:10.481Z,782.55
2019-05-25T05:19:10.477Z,782.60
2019-05-25T05:20:10.447Z,782.57
2019-05-25T05:21:10.444Z,782.63
2019-05-25T05:22:10.441Z,782.81
2019-05-25T05:23:10.424Z,782.93
2019-05-25T05:24:10.420Z,782.93
2019-05-25T05:25:11.106Z,782.92
2019-05-25T05:26:10.395Z,782.89
2019-05-25T05:27:10.384Z,782.87
2019-05-25T05:28:10.365Z,782.84
2019-05-25T05:29:10.366Z,782.76
2019-05-25T05:30:10.340Z,782.66
2019-05-25T05:31:22.669Z,782.61
2019-05-25T05:32:10.352Z,782.63
2019-05-25T05:33:10.306Z,782.64
2019-05-25T05:34:10.291Z,782.65
2019-05-25T05:35:10.295Z,782.67
2019-05-25T05:36:10.275Z,782.65
2019-05-25T05:37:10.280Z,782.76
2019-05-25T05:38:10.249Z,782.75
2019-05-25T05:39:10.250Z,782.73
2019-05-25T05:40:10.237Z,782.64
2019-05-25T05:41:10.222Z,782.49
2019-05-25T05:42:10.233Z,782.41
2019-05-25T05:43:10.214Z,782.38
2019-05-25T05:44:10.193Z,782.32
2019-05-25T05:45:10.180Z,782.38
2019-05-25T05:46:10.162Z,782.57
2019-05-25T05:47:10.596Z,782.72
2019-05-25T05:48:10.145Z,782.74
2019-05-25T05:49:10.139Z,782.74
2019-05-25T05:50:10.123Z,782.70
2019-05-25T05:51:10.106Z,782.69
2019-05-25T05:52:10.130Z,782.73
2019-05-25T05:53:10.113Z,782.71
2019-05-25T05:54:10.075Z,782.77
2019-05-25T05:55:10.077Z,782.77
2019-05-25T05:56:10.055Z,782.79
2019-05-25T05:57:12.723Z,782.87
2019-05-25T05:58:10.081Z,782.91
2019-05-25T05:59:10.042Z,782.90
2019-05-25T06:00:10.020Z,782.84
2019-05-25T06:01:10.005Z,782.81
2019-05-25T06:02:10.027Z,782.79
2019-05-25T06:03:09.989Z,782.80
2019-05-25T06:04:09.971Z,782.90
2019-05-25T06:05:09.963Z,782.95
2019-05-25T06:06:09.959Z,782.97
2019-05-25T06:07:09.950Z,782.93
2019-05-25T06:08:09.947Z,782.86
2019-05-25T06:09:09.918Z,782.78
2019-05-25T06:10:09.907Z,782.75
2019-05-25T06:11:09.893Z,782.74
2019-05-25T06:12:09.894Z,782.72
2019-05-25T06:13:09.911Z,782.70
2019-05-25T06:14:09.866Z,782.75
2019-05-25T06:15:09.857Z,782.71
2019-05-25T06:16:09.846Z,782.67
2019-05-25T06:17:09.842Z,782.66
2019-05-25T06:18:09.838Z,782.65
2019-05-25T06:19:09.817Z,782.61
2019-05-25T06:20:09.805Z,782.49
2019-05-25T06:21:09.795Z,782.46
2019-05-25T06:22:09.782Z,782.53
2019-05-25T06:23:12.287Z,782.59
2019-05-25T06:24:09.752Z,782.61
2019-05-25T06:25:09.744Z,782.56
2019-05-25T06:26:09.772Z,782.56
2019-05-25T06:27:09.714Z,782.52
2019-05-25T06:28:09.734Z,782.52
2019-05-25T06:29:09.701Z,782.51
2019-05-25T06:30:09.701Z,782.55
2019-05-25T06:31:09.685Z,782.53
2019-05-25T06:32:09.666Z,782.54
2019-05-25T06:33:09.681Z,782.45
2019-05-25T06:34:09.653Z,782.42
2019-05-25T06:35:09.642Z,782.29
2019-05-25T06:36:09.619Z,782.16
2019-05-25T06:37:09.620Z,782.14
2019-05-25T06:38:09.624Z,782.07
2019-05-25T06:39:09.602Z,782.12
2019-05-25T06:40:09.580Z,782.17
2019-05-25T06:41:09.577Z,782.20
2019-05-25T06:42:09.556Z,782.20
2019-05-25T06:43:09.570Z,782.32
2019-05-25T06:44:09.545Z,782.28
2019-05-25T06:45:09.519Z,782.20
2019-05-25T06:46:09.524Z,782.19
2019-05-25T06:47:09.502Z,782.34
2019-05-25T06:48:09.518Z,782.34
2019-05-25T06:49:09.480Z,782.27
2019-05-25T06:50:09.464Z,782.04
2019-05-25T06:51:09.457Z,782.03
2019-05-25T06:52:09.453Z,781.99
2019-05-25T06:53:09.454Z,781.87
2019-05-25T06:54:09.443Z,781.74
2019-05-25T06:55:09.426Z,781.70
2019-05-25T06:56:09.403Z,781.78
2019-05-25T06:57:09.440Z,781.80
2019-05-25T06:58:09.414Z,781.91
2019-05-25T06:59:09.385Z,781.89
2019-05-25T07:00:09.357Z,781.80
2019-05-25T07:01:09.352Z,781.53
2019-05-25T07:02:09.348Z,781.54
2019-05-25T07:03:09.345Z,781.40
2019-05-25T07:04:09.327Z,781.33
2019-05-25T07:05:09.319Z,781.39
2019-05-25T07:07:18.483Z,781.51
2019-05-25T07:08:19.495Z,781.31
2019-05-25T07:09:19.474Z,781.21
2019-05-25T07:10:19.448Z,781.06
2019-05-25T07:11:19.444Z,781.04
2019-05-25T07:12:19.434Z,781.38
2019-05-25T07:13:19.431Z,781.36
2019-05-25T07:14:19.409Z,781.47
2019-05-25T07:15:19.398Z,781.63
2019-05-25T07:16:19.375Z,781.57
2019-05-25T07:17:19.375Z,781.46
2019-05-25T07:18:19.380Z,781.57
2019-05-25T07:19:19.349Z,781.61
2019-05-25T07:20:19.348Z,781.55
2019-05-25T07:21:19.337Z,781.67
2019-05-25T07:22:19.322Z,781.66
2019-05-25T07:23:19.321Z,781.54
2019-05-25T07:24:19.286Z,781.52
2019-05-25T07:25:20.271Z,781.59
2019-05-25T07:26:19.281Z,781.83
2019-05-25T07:27:19.283Z,781.85
2019-05-25T07:28:19.275Z,781.84
2019-05-25T07:29:19.244Z,781.85
2019-05-25T07:30:19.233Z,782.00
2019-05-25T07:31:19.219Z,782.05
2019-05-25T07:32:19.208Z,782.00
2019-05-25T07:33:19.220Z,781.97
2019-05-25T07:34:19.182Z,781.91
2019-05-25T07:35:19.174Z,781.87
2019-05-25T07:36:19.172Z,781.98
2019-05-25T07:37:19.145Z,781.92
2019-05-25T07:38:19.164Z,781.82
2019-05-25T07:39:19.124Z,781.64
2019-05-25T07:40:19.109Z,781.57
2019-05-25T07:41:19.110Z,781.54
2019-05-25T07:42:20.078Z,781.52
2019-05-25T07:43:19.108Z,781.43
2019-05-25T07:44:19.083Z,781.29
2019-05-25T07:45:19.060Z,781.28
2019-05-25T07:46:19.860Z,781.29
2019-05-25T07:47:19.043Z,781.27
2019-05-25T07:48:19.024Z,781.33
2019-05-25T07:49:19.052Z,781.49
2019-05-25T07:50:19.003Z,781.46
2019-05-25T07:51:19.006Z,781.31
2019-05-25T07:52:18.986Z,781.27
2019-05-25T07:53:18.996Z,781.30
2019-05-25T07:54:18.988Z,781.18
2019-05-25T07:55:18.954Z,781.23
2019-05-25T07:56:18.935Z,781.30
2019-05-25T07:57:18.933Z,781.31
2019-05-25T07:58:18.939Z,781.17
2019-05-25T07:59:18.910Z,781.21
2019-05-25T08:00:18.923Z,781.24
2019-05-25T08:01:18.884Z,781.20
2019-05-25T08:02:18.868Z,781.08
2019-05-25T08:03:18.856Z,781.04
2019-05-25T08:04:18.863Z,781.01
2019-05-25T08:05:18.840Z,780.99
2019-05-25T08:06:18.822Z,780.97
2019-05-25T08:07:18.811Z,781.09
2019-05-25T08:08:18.811Z,781.06
2019-05-25T08:09:18.836Z,780.99
2019-05-25T08:10:18.790Z,780.98
2019-05-25T08:11:18.764Z,780.93
2019-05-25T08:12:18.765Z,780.92
2019-05-25T08:13:18.742Z,780.89
2019-05-25T08:14:18.748Z,780.74
2019-05-25T08:15:18.721Z,780.75
2019-05-25T08:16:18.714Z,780.78
2019-05-25T08:17:18.710Z,780.72
2019-05-25T08:18:18.701Z,780.59
2019-05-25T08:19:18.700Z,780.37
2019-05-25T08:20:18.671Z,780.29
2019-05-25T08:21:18.648Z,780.04
2019-05-25T08:22:18.638Z,780.32
2019-05-25T08:23:18.627Z,780.39
2019-05-25T08:24:18.653Z,780.52
2019-05-25T08:25:18.626Z,780.49
2019-05-25T08:26:18.602Z,780.57
2019-05-25T08:27:18.587Z,780.51
2019-05-25T08:28:31.819Z,780.37
2019-05-25T08:29:18.586Z,780.36
2019-05-25T08:30:18.563Z,780.28
2019-05-25T08:31:18.538Z,780.37
2019-05-25T08:32:18.536Z,780.27
2019-05-25T08:33:18.524Z,780.12
2019-05-25T08:34:18.528Z,779.92
2019-05-25T08:35:18.497Z,779.60
2019-05-25T08:36:18.493Z,779.41
2019-05-25T08:37:18.480Z,778.96
2019-05-25T08:38:18.474Z,778.86
2019-05-25T08:39:18.472Z,778.75
2019-05-25T08:40:18.445Z,778.99
2019-05-25T08:41:18.431Z,779.28
2019-05-25T08:42:18.428Z,779.41
2019-05-25T08:43:18.415Z,779.51
2019-05-25T08:44:18.417Z,779.59
2019-05-25T08:45:18.425Z,779.68
2019-05-25T08:46:18.387Z,779.82
2019-05-25T08:47:18.366Z,779.62
2019-05-25T08:48:18.376Z,779.74
2019-05-25T08:49:18.353Z,779.89
2019-05-25T08:50:18.358Z,779.78
2019-05-25T08:51:18.322Z,779.89
2019-05-25T08:52:18.359Z,780.03
2019-05-25T08:53:21.554Z,779.83
2019-05-25T08:54:18.292Z,779.65
2019-05-25T08:55:18.285Z,779.66
2019-05-25T08:56:18.283Z,779.68
2019-05-25T08:57:18.760Z,779.79
2019-05-25T08:58:18.259Z,779.72
2019-05-25T08:59:18.248Z,779.38
2019-05-25T09:00:18.250Z,779.21
2019-05-25T09:01:18.221Z,779.00
2019-05-25T09:02:18.205Z,779.30
2019-05-25T09:03:18.193Z,779.43
2019-05-25T09:04:18.184Z,779.44
2019-05-25T09:05:18.186Z,779.47
2019-05-25T09:06:18.163Z,779.36
2019-05-25T09:08:27.350Z,779.24
2019-05-25T09:09:28.329Z,778.83
2019-05-25T09:10:28.506Z,778.62
2019-05-25T09:11:28.306Z,778.44
2019-05-25T09:12:28.296Z,778.37
2019-05-25T09:13:28.284Z,779.07
2019-05-25T09:14:28.268Z,779.37
2019-05-25T09:15:28.282Z,779.30
2019-05-25T09:16:28.259Z,779.11
2019-05-25T09:17:28.247Z,778.74
2019-05-25T09:18:28.237Z,778.54
2019-05-25T09:19:28.213Z,778.17
2019-05-25T09:20:28.241Z,778.51
2019-05-25T09:21:28.209Z,778.28
2019-05-25T09:22:28.196Z,778.02
2019-05-25T09:23:28.182Z,778.00
2019-05-25T09:24:28.165Z,778.44
2019-05-25T09:25:28.162Z,778.77
2019-05-25T09:26:28.149Z,778.46
2019-05-25T09:27:28.150Z,777.93
2019-05-25T09:28:28.122Z,777.82
2019-05-25T09:29:28.131Z,778.20
2019-05-25T09:30:28.120Z,778.16
2019-05-25T09:31:28.097Z,778.41
2019-05-25T09:32:28.092Z,778.65
2019-05-25T09:33:28.063Z,778.54
2019-05-25T09:34:28.085Z,778.21
2019-05-25T09:35:28.089Z,777.94
2019-05-25T09:36:28.037Z,777.69
2019-05-25T09:37:28.040Z,777.36
2019-05-25T09:38:28.014Z,777.43
2019-05-25T09:39:28.006Z,777.37
2019-05-25T09:40:28.018Z,777.57
2019-05-25T09:41:27.985Z,778.07
2019-05-25T09:42:27.965Z,778.12
2019-05-25T09:43:27.952Z,778.07
2019-05-25T09:44:27.942Z,778.06
2019-05-25T09:45:27.953Z,777.84
2019-05-25T09:46:27.921Z,777.84
2019-05-25T09:47:27.913Z,777.98
2019-05-25T09:48:27.898Z,778.23
2019-05-25T09:49:27.887Z,778.14
2019-05-25T09:50:27.941Z,778.15
2019-05-25T09:51:27.869Z,778.57
2019-05-25T09:52:27.863Z,778.89
2019-05-25T09:53:27.856Z,779.33
2019-05-25T09:54:27.860Z,779.38
2019-05-25T09:55:27.829Z,779.51
2019-05-25T09:56:27.817Z,779.28
2019-05-25T09:57:27.810Z,779.25
2019-05-25T09:58:27.790Z,779.00
2019-05-25T09:59:27.802Z,778.53
2019-05-25T10:00:27.794Z,778.48
2019-05-25T10:01:27.772Z,778.63
2019-05-25T10:02:27.758Z,778.74
2019-05-25T10:03:27.743Z,778.76
2019-05-25T10:04:27.727Z,778.51
2019-05-25T10:05:27.838Z,778.40
2019-05-25T10:06:27.720Z,778.27
2019-05-25T10:07:27.721Z,778.09
2019-05-25T10:08:27.675Z,778.02
2019-05-25T10:09:27.670Z,777.78
2019-05-25T10:10:27.677Z,777.53
2019-05-25T10:11:27.657Z,777.55
2019-05-25T10:12:27.640Z,777.53
2019-05-25T10:13:27.620Z,777.80
2019-05-25T10:14:27.606Z,778.10
2019-05-25T10:15:28.474Z,777.92
2019-05-25T10:16:27.617Z,777.77
2019-05-25T10:17:27.579Z,777.80
2019-05-25T10:18:27.588Z,777.29
2019-05-25T10:19:27.549Z,776.67
2019-05-25T10:20:27.547Z,776.16
2019-05-25T10:21:27.548Z,776.13
2019-05-25T10:22:27.534Z,775.95
2019-05-25T10:23:27.508Z,775.63
2019-05-25T10:24:27.511Z,775.23
2019-05-25T10:25:27.493Z,775.57
2019-05-25T10:26:27.504Z,775.51
2019-05-25T10:27:27.468Z,775.38
2019-05-25T10:28:27.478Z,775.49
2019-05-25T10:29:36.756Z,775.46
2019-05-25T10:30:27.444Z,775.90
2019-05-25T10:31:27.441Z,776.31
2019-05-25T10:32:27.423Z,776.15
2019-05-25T10:33:27.414Z,775.77
2019-05-25T10:34:27.397Z,775.48
2019-05-25T10:35:27.465Z,775.25
2019-05-25T10:36:27.387Z,775.51
2019-05-25T10:37:27.361Z,775.78
2019-05-25T10:38:27.340Z,775.68
2019-05-25T10:39:27.507Z,775.68
2019-05-25T10:40:27.340Z,776.00
2019-05-25T10:41:27.342Z,775.88
2019-05-25T10:42:27.310Z,775.76
2019-05-25T10:43:27.301Z,775.90
2019-05-25T10:44:27.273Z,776.10
2019-05-25T10:45:27.277Z,776.16
2019-05-25T10:46:27.311Z,776.75
2019-05-25T10:47:27.248Z,776.86
2019-05-25T10:48:27.246Z,776.50
2019-05-25T10:49:27.228Z,776.28
2019-05-25T10:50:27.228Z,776.19
2019-05-25T10:51:27.230Z,775.89
2019-05-25T10:52:27.205Z,775.89
2019-05-25T10:53:27.189Z,776.01
2019-05-25T10:54:27.174Z,776.30
2019-05-25T10:55:27.157Z,776.41
2019-05-25T10:56:27.175Z,776.48
2019-05-25T10:57:27.145Z,776.17
2019-05-25T10:58:27.134Z,775.90
2019-05-25T10:59:27.111Z,776.17
2019-05-25T11:00:27.108Z,776.44
2019-05-25T11:01:27.205Z,776.37
2019-05-25T11:02:27.086Z,775.95
2019-05-25T11:03:27.082Z,775.64
2019-05-25T11:04:27.064Z,776.07
2019-05-25T11:05:27.049Z,776.51
2019-05-25T11:06:27.070Z,776.65
2019-05-25T11:07:27.043Z,776.91
2019-05-25T11:09:37.403Z,776.74
2019-05-25T11:10:38.339Z,776.47
2019-05-25T11:11:38.332Z,776.46
2019-05-25T11:12:38.343Z,776.58
2019-05-25T11:13:38.303Z,776.28
2019-05-25T11:14:38.320Z,776.01
2019-05-25T11:15:38.288Z,775.94
2019-05-25T11:16:38.302Z,776.05
2019-05-25T11:17:38.256Z,776.12
2019-05-25T11:18:38.308Z,776.17
2019-05-25T11:19:38.245Z,776.00
2019-05-25T11:20:38.279Z,775.48
2019-05-25T11:21:38.262Z,775.24
2019-05-25T11:22:38.205Z,775.38
2019-05-25T11:23:38.197Z,775.46
2019-05-25T11:24:38.187Z,775.22
2019-05-25T11:25:38.197Z,775.05
2019-05-25T11:26:38.176Z,774.89
2019-05-25T11:27:38.225Z,774.58
2019-05-25T11:28:38.142Z,774.61
2019-05-25T11:29:38.124Z,774.79
2019-05-25T11:30:38.122Z,774.84
2019-05-25T11:31:38.289Z,775.03
2019-05-25T11:32:38.127Z,775.51
2019-05-25T11:33:38.109Z,775.63
2019-05-25T11:34:38.088Z,775.47
2019-05-25T11:35:38.082Z,775.67
2019-05-25T11:36:38.076Z,775.76
2019-05-25T11:37:38.101Z,775.62
2019-05-25T11:38:38.044Z,775.63
2019-05-25T11:39:38.065Z,775.22
2019-05-25T11:40:38.015Z,775.06
2019-05-25T11:41:37.998Z,774.80
2019-05-25T11:42:38.029Z,774.51
2019-05-25T11:43:38.006Z,774.34
2019-05-25T11:44:37.969Z,774.46
2019-05-25T11:45:38.000Z,774.44
2019-05-25T11:46:37.997Z,774.48
2019-05-25T11:47:37.958Z,774.58
2019-05-25T11:48:37.943Z,774.25
2019-05-25T11:49:37.914Z,774.02
2019-05-25T11:50:37.933Z,773.83
2019-05-25T11:51:37.917Z,774.26
2019-05-25T11:52:38.136Z,774.15
2019-05-25T11:53:37.886Z,774.43
2019-05-25T11:54:37.865Z,774.24
2019-05-25T11:55:37.884Z,774.12
2019-05-25T11:56:37.829Z,774.02
2019-05-25T11:57:37.852Z,773.80
2019-05-25T11:58:46.966Z,774.14
2019-05-25T11:59:37.813Z,774.14
2019-05-25T12:00:37.808Z,774.16
2019-05-25T12:01:37.783Z,774.04
2019-05-25T12:02:37.797Z,773.77
2019-05-25T12:03:37.777Z,773.77
2019-05-25T12:04:37.789Z,774.35
2019-05-25T12:05:37.758Z,775.01
2019-05-25T12:06:37.741Z,775.23
2019-05-25T12:07:37.733Z,775.24
2019-05-25T12:08:37.716Z,775.26
2019-05-25T12:09:37.705Z,775.16
2019-05-25T12:10:37.694Z,774.96
2019-05-25T12:11:37.689Z,774.69
2019-05-25T12:12:37.681Z,774.50
2019-05-25T12:13:37.656Z,774.62
2019-05-25T12:14:37.668Z,774.69
2019-05-25T12:15:37.685Z,774.46
2019-05-25T12:16:37.647Z,774.18
2019-05-25T12:17:37.655Z,774.60
2019-05-25T12:18:37.624Z,775.00
2019-05-25T12:19:37.610Z,774.89
2019-05-25T12:20:37.584Z,775.05
2019-05-25T12:21:37.564Z,775.25
2019-05-25T12:22:37.601Z,775.31
2019-05-25T12:23:37.544Z,775.36
2019-05-25T12:24:37.560Z,775.54
2019-05-25T12:25:37.537Z,775.38
2019-05-25T12:26:37.514Z,775.08
2019-05-25T12:27:37.546Z,774.74
2019-05-25T12:28:37.649Z,774.50
2019-05-25T12:29:37.486Z,774.38
2019-05-25T12:30:40.895Z,774.55
2019-05-25T12:31:37.489Z,774.73
2019-05-25T12:32:37.455Z,774.58
2019-05-25T12:33:37.473Z,775.07
2019-05-25T12:34:37.418Z,775.28
2019-05-25T12:35:37.418Z,775.27